createdAt,value
2024-05-09T00:00:35.767Z,100.00
2024-05-09T00:03:10.868Z,100.00
2024-05-09T00:05:41.072Z,100.00
2024-05-09T00:08:08.997Z,100.00
2024-05-09T00:10:38.262Z,100.00
2024-05-09T00:13:07.492Z,100.00
2024-05-09T00:15:35.480Z,100.00
2024-05-09T00:18:03.384Z,100.00
2024-05-09T00:20:37.651Z,100.00
2024-05-09T00:23:16.182Z,100.00
2024-05-09T00:25:43.795Z,100.00
2024-05-09T00:28:14.248Z,100.00
2024-05-09T00:30:41.232Z,100.00
2024-05-09T00:33:09.870Z,100.00
2024-05-09T00:35:38.505Z,100.00
2024-05-09T00:38:05.648Z,100.00
2024-05-09T00:40:41.990Z,100.00
2024-05-09T00:43:14.735Z,100.00
2024-05-09T00:45:42.934Z,100.00
2024-05-09T00:48:13.483Z,100.00
2024-05-09T00:50:44.179Z,100.00
2024-05-09T00:53:12.993Z,100.00
2024-05-09T00:55:40.223Z,100.00
2024-05-09T00:58:09.225Z,100.00
2024-05-09T01:00:39.770Z,100.00
2024-05-09T01:03:10.796Z,100.00
2024-05-09T01:05:40.023Z,100.00
2024-05-09T01:08:07.628Z,100.00
2024-05-09T01:10:35.991Z,100.00
2024-05-09T01:13:07.443Z,100.00
2024-05-09T01:15:35.134Z,100.00
2024-05-09T01:18:13.180Z,100.00
2024-05-09T01:20:43.708Z,100.00
2024-05-09T01:23:14.656Z,100.00
2024-05-09T01:25:43.918Z,100.00
2024-05-09T01:28:11.029Z,100.00
2024-05-09T01:30:38.560Z,100.00
2024-05-09T01:33:08.474Z,100.00
2024-05-09T01:35:37.233Z,100.00
2024-05-09T01:38:04.550Z,100.00
2024-05-09T01:40:38.361Z,100.00
2024-05-09T01:43:08.822Z,100.00
2024-05-09T01:45:36.661Z,100.00
2024-05-09T01:48:03.906Z,100.00
2024-05-09T01:53:00.737Z,100.00
2024-05-09T01:55:27.586Z,100.00
2024-05-09T01:57:54.313Z,100.00
2024-05-09T02:00:30.611Z,100.00
2024-05-09T02:03:05.398Z,100.00
2024-05-09T02:05:32.316Z,100.00
2024-05-09T02:07:59.213Z,100.00
2024-05-09T02:10:32.148Z,100.00
2024-05-09T02:12:59.949Z,100.00
2024-05-09T02:15:26.786Z,100.00
2024-05-09T02:17:53.738Z,100.00
2024-05-09T02:20:30.143Z,100.00
2024-05-09T02:23:04.632Z,100.00
2024-05-09T02:25:32.918Z,100.00
2024-05-09T02:27:59.900Z,100.00
2024-05-09T02:30:36.570Z,100.00
2024-05-09T02:33:08.070Z,100.00
2024-05-09T02:35:35.635Z,100.00
2024-05-09T02:38:02.569Z,100.00
2024-05-09T02:40:36.397Z,100.00
2024-05-09T02:43:10.196Z,100.00
2024-05-09T02:45:38.506Z,100.00
2024-05-09T02:48:06.099Z,100.00
2024-05-09T02:50:37.742Z,100.00
2024-05-09T02:53:07.663Z,100.00
2024-05-09T02:55:34.738Z,100.00
2024-05-09T02:58:01.605Z,100.00
2024-05-09T03:00:36.807Z,100.00
2024-05-09T03:03:08.734Z,100.00
2024-05-09T03:05:36.938Z,100.00
2024-05-09T03:08:04.476Z,100.00
2024-05-09T03:10:36.008Z,100.00
2024-05-09T03:13:14.657Z,100.00
2024-05-09T03:15:42.836Z,100.00
2024-05-09T03:18:10.168Z,100.00
2024-05-09T03:20:38.208Z,100.00
2024-05-09T03:23:08.048Z,100.00
2024-05-09T03:25:37.243Z,100.00
2024-05-09T03:28:04.286Z,100.00
2024-05-09T03:30:39.733Z,100.00
2024-05-09T03:33:18.794Z,100.00
2024-05-09T03:35:47.531Z,100.00
2024-05-09T03:38:14.601Z,100.00
2024-05-09T03:40:50.347Z,100.00
2024-05-09T03:43:18.820Z,100.00
2024-05-09T03:45:47.460Z,100.00
2024-05-09T03:48:14.559Z,100.00
2024-05-09T03:50:41.674Z,100.00
2024-05-09T03:53:13.404Z,100.00
2024-05-09T03:55:40.796Z,100.00
2024-05-09T03:58:08.394Z,100.00
2024-05-09T04:00:38.799Z,100.00
2024-05-09T04:03:10.100Z,100.00
2024-05-09T04:05:43.142Z,100.00
2024-05-09T04:08:11.227Z,100.00
2024-05-09T04:10:38.399Z,100.00
2024-05-09T04:13:05.610Z,100.00
2024-05-09T04:15:32.712Z,100.00
2024-05-09T04:18:00.015Z,100.00
2024-05-09T04:22:56.944Z,100.00
2024-05-09T04:25:23.897Z,100.00
2024-05-09T04:27:50.665Z,100.00
2024-05-09T04:30:25.722Z,100.00
2024-05-09T04:33:01.004Z,100.00
2024-05-09T04:35:28.010Z,100.00
2024-05-09T04:37:54.819Z,100.00
2024-05-09T04:40:28.533Z,99.93
2024-05-09T04:43:00.539Z,98.24
2024-05-09T04:45:27.291Z,98.65
2024-05-09T04:47:54.632Z,98.74
2024-05-09T04:50:29.987Z,98.40
2024-05-09T04:53:03.102Z,98.93
2024-05-09T04:55:33.347Z,98.74
2024-05-09T04:58:00.114Z,98.56
2024-05-09T05:00:34.713Z,98.98
2024-05-09T05:03:15.369Z,97.96
2024-05-09T05:05:45.317Z,98.15
2024-05-09T05:08:17.062Z,98.78
2024-05-09T05:10:45.455Z,97.93
2024-05-09T05:13:24.947Z,98.09
2024-05-09T05:15:56.550Z,98.04
2024-05-09T05:18:24.721Z,98.23
2024-05-09T05:20:51.763Z,97.45
2024-05-09T05:23:20.445Z,97.28
2024-05-09T05:25:48.822Z,97.04
2024-05-09T05:28:17.050Z,96.97
2024-05-09T05:30:44.188Z,97.30
2024-05-09T05:33:13.644Z,97.79
2024-05-09T05:35:41.550Z,97.51
2024-05-09T05:38:09.279Z,97.54
2024-05-09T05:40:40.225Z,97.76
2024-05-09T05:46:04.621Z,96.96
2024-05-09T05:48:31.453Z,94.88
2024-05-09T05:51:00.433Z,94.71
2024-05-09T05:53:28.530Z,93.95
2024-05-09T05:55:55.323Z,92.83
2024-05-09T05:58:22.579Z,92.61
2024-05-09T06:00:50.775Z,92.40
2024-05-09T06:03:17.621Z,94.01
2024-05-09T06:05:45.913Z,93.30
2024-05-09T06:08:13.015Z,92.24
2024-05-09T06:10:41.342Z,91.58
2024-05-09T06:13:12.368Z,92.32
2024-05-09T06:15:40.647Z,91.63
2024-05-09T06:18:09.473Z,88.47
2024-05-09T06:20:39.488Z,88.75
2024-05-09T06:23:07.211Z,89.94
2024-05-09T06:25:35.712Z,88.82
2024-05-09T06:28:02.714Z,88.74
2024-05-09T06:30:37.979Z,87.38
2024-05-09T06:33:09.366Z,87.79
2024-05-09T06:35:37.441Z,87.55
2024-05-09T06:38:04.604Z,87.48
2024-05-09T06:40:37.470Z,87.66
2024-05-09T06:43:18.218Z,85.29
2024-05-09T06:45:48.246Z,85.37
2024-05-09T06:48:18.193Z,86.46
2024-05-09T06:50:45.485Z,86.58
2024-05-09T06:53:16.341Z,84.26
2024-05-09T06:55:43.259Z,82.47
2024-05-09T06:58:10.116Z,81.06
2024-05-09T07:00:39.991Z,82.11
2024-05-09T07:03:13.857Z,82.96
2024-05-09T07:05:43.074Z,82.13
2024-05-09T07:08:10.368Z,81.49
2024-05-09T07:10:37.680Z,83.74
2024-05-09T07:13:12.144Z,84.01
2024-05-09T07:15:39.726Z,85.00
2024-05-09T07:18:11.411Z,85.85
2024-05-09T07:20:39.263Z,84.37
2024-05-09T07:23:09.284Z,83.01
2024-05-09T07:25:36.307Z,81.91
2024-05-09T07:28:03.157Z,80.19
2024-05-09T07:30:33.595Z,80.28
2024-05-09T07:33:02.564Z,78.99
2024-05-09T07:35:30.262Z,79.25
2024-05-09T07:37:57.467Z,75.33
2024-05-09T07:40:32.735Z,76.08
2024-05-09T07:43:04.319Z,77.20
2024-05-09T07:45:47.980Z,77.83
2024-05-09T07:50:00.267Z,73.85
2024-05-09T07:53:49.094Z,73.30
2024-05-09T07:56:21.743Z,71.02
2024-05-09T07:58:50.810Z,71.80
2024-05-09T08:01:17.905Z,72.59
2024-05-09T08:03:45.066Z,72.77
2024-05-09T08:06:12.055Z,73.38
2024-05-09T08:08:38.774Z,71.23
2024-05-09T08:11:06.560Z,71.72
2024-05-09T08:13:33.456Z,71.36
2024-05-09T08:16:00.539Z,68.04
2024-05-09T08:18:27.751Z,68.40
2024-05-09T08:20:54.608Z,66.21
2024-05-09T08:23:21.385Z,65.21
2024-05-09T08:25:48.153Z,64.58
2024-05-09T08:28:15.683Z,62.87
2024-05-09T08:30:43.161Z,63.66
2024-05-09T08:33:10.367Z,63.89
2024-05-09T08:35:37.507Z,62.57
2024-05-09T08:38:06.300Z,62.48
2024-05-09T08:40:36.202Z,61.69
2024-05-09T08:43:11.019Z,63.48
2024-05-09T08:45:42.401Z,62.08
2024-05-09T08:48:12.055Z,63.50
2024-05-09T08:50:41.433Z,62.11
2024-05-09T08:53:08.947Z,61.42
2024-05-09T08:55:40.404Z,61.87
2024-05-09T08:58:12.755Z,64.19
2024-05-09T09:00:42.128Z,61.12
2024-05-09T09:03:11.649Z,60.14
2024-05-09T09:05:40.888Z,60.75
2024-05-09T09:08:08.814Z,60.29
2024-05-09T09:10:38.044Z,62.15
2024-05-09T09:13:07.235Z,61.19
2024-05-09T09:15:34.193Z,62.29
2024-05-09T09:18:01.500Z,59.72
2024-05-09T09:20:35.850Z,61.87
2024-05-09T09:23:04.526Z,62.33
2024-05-09T09:25:31.911Z,55.54
2024-05-09T09:27:59.138Z,55.43
2024-05-09T09:30:36.312Z,59.18
2024-05-09T09:33:13.963Z,58.24
2024-05-09T09:35:41.046Z,55.38
2024-05-09T09:38:10.475Z,55.55
2024-05-09T09:40:44.761Z,56.40
2024-05-09T09:43:19.486Z,55.21
2024-05-09T09:45:50.802Z,53.31
2024-05-09T09:48:17.751Z,54.20
2024-05-09T09:50:45.624Z,54.64
2024-05-09T09:53:12.812Z,54.13
2024-05-09T09:55:40.616Z,53.38
2024-05-09T09:58:09.790Z,55.09
2024-05-09T10:00:39.078Z,52.09
2024-05-09T10:03:05.936Z,51.74
2024-05-09T10:05:34.264Z,52.42
2024-05-09T10:08:06.697Z,53.06
2024-05-09T10:10:34.911Z,52.26
2024-05-09T10:13:06.066Z,53.28
2024-05-09T10:15:45.479Z,51.96
2024-05-09T10:18:12.843Z,52.15
2024-05-09T10:20:44.226Z,48.10
2024-05-09T10:23:26.909Z,50.14
2024-05-09T10:26:05.403Z,51.09
2024-05-09T10:28:35.350Z,53.45
2024-05-09T10:31:13.886Z,49.55
2024-05-09T10:33:52.334Z,50.41
2024-05-09T10:36:25.210Z,49.52
2024-05-09T10:38:56.023Z,49.66
2024-05-09T10:41:23.986Z,51.00
2024-05-09T10:43:52.079Z,51.38
2024-05-09T10:46:19.631Z,50.89
2024-05-09T10:48:47.466Z,49.28
2024-05-09T10:51:14.465Z,47.99
2024-05-09T10:53:45.419Z,50.12
2024-05-09T10:56:14.068Z,50.16
2024-05-09T10:58:40.849Z,48.81
2024-05-09T11:01:09.239Z,50.13
2024-05-09T11:03:36.993Z,50.77
2024-05-09T11:06:05.468Z,48.02
2024-05-09T11:08:33.092Z,46.86
2024-05-09T11:11:00.447Z,48.93
2024-05-09T11:13:27.210Z,51.59
2024-05-09T11:15:54.132Z,48.56
2024-05-09T11:18:26.068Z,50.15
2024-05-09T11:20:55.552Z,50.73
2024-05-09T11:23:26.243Z,48.48
2024-05-09T11:25:54.838Z,47.28
2024-05-09T11:28:22.946Z,47.61
2024-05-09T11:30:50.890Z,49.65
2024-05-09T11:33:20.845Z,46.78
2024-05-09T11:35:47.901Z,48.40
2024-05-09T11:38:14.608Z,49.83
2024-05-09T11:40:41.721Z,48.62
2024-05-09T11:43:08.744Z,50.16
2024-05-09T11:45:35.557Z,50.94
2024-05-09T11:48:03.978Z,46.52
2024-05-09T11:50:35.306Z,47.26
2024-05-09T11:53:02.939Z,47.29
2024-05-09T11:55:29.753Z,49.18
2024-05-09T11:57:57.593Z,49.50
2024-05-09T12:00:33.766Z,47.44
2024-05-09T12:03:05.440Z,47.62
2024-05-09T12:05:34.215Z,47.98
2024-05-09T12:08:01.523Z,49.26
2024-05-09T12:10:33.478Z,46.91
2024-05-09T12:13:04.134Z,48.87
2024-05-09T12:15:32.643Z,46.65
2024-05-09T12:18:02.749Z,50.07
2024-05-09T12:20:36.655Z,47.02
2024-05-09T12:23:06.628Z,47.03
2024-05-09T12:25:33.720Z,48.22
2024-05-09T12:28:00.811Z,50.21
2024-05-09T12:30:36.126Z,47.49
2024-05-09T12:33:11.638Z,46.71
2024-05-09T12:35:39.294Z,47.23
2024-05-09T12:38:05.988Z,48.10
2024-05-09T12:40:36.837Z,49.49
2024-05-09T12:43:10.144Z,45.76
2024-05-09T12:45:38.638Z,46.33
2024-05-09T12:48:08.404Z,47.61
2024-05-09T12:50:35.986Z,48.96
2024-05-09T12:53:04.120Z,49.06
2024-05-09T12:55:40.360Z,48.37
2024-05-09T12:58:15.903Z,45.38
2024-05-09T13:00:43.450Z,45.01
2024-05-09T13:03:10.435Z,46.28
2024-05-09T13:05:37.412Z,47.45
2024-05-09T13:08:04.602Z,48.04
2024-05-09T13:10:33.101Z,46.50
2024-05-09T13:13:01.867Z,48.08
2024-05-09T13:15:30.591Z,48.76
2024-05-09T13:18:01.544Z,47.58
2024-05-09T13:20:33.524Z,49.50
2024-05-09T13:23:07.514Z,46.81
2024-05-09T13:25:35.872Z,47.11
2024-05-09T13:28:04.090Z,46.70
2024-05-09T13:30:39.094Z,45.97
2024-05-09T13:33:12.785Z,47.67
2024-05-09T13:35:46.694Z,48.63
2024-05-09T13:38:16.466Z,45.75
2024-05-09T13:40:43.236Z,45.46
2024-05-09T13:43:10.064Z,45.40
2024-05-09T13:45:36.852Z,45.90
2024-05-09T13:48:04.564Z,44.70
2024-05-09T13:50:35.324Z,46.74
2024-05-09T13:53:06.346Z,45.58
2024-05-09T13:55:34.299Z,46.00
2024-05-09T13:58:01.418Z,47.60
2024-05-09T14:00:41.677Z,47.55
2024-05-09T14:03:14.015Z,47.42
2024-05-09T14:05:41.271Z,46.28
2024-05-09T14:08:09.175Z,44.17
2024-05-09T14:10:36.173Z,44.22
2024-05-09T14:13:03.048Z,44.68
2024-05-09T14:15:29.951Z,46.88
2024-05-09T14:17:56.856Z,45.52
2024-05-09T14:20:30.669Z,46.62
2024-05-09T14:23:00.427Z,46.81
2024-05-09T14:25:28.798Z,45.50
2024-05-09T14:27:58.154Z,44.45
2024-05-09T14:30:33.740Z,45.17
2024-05-09T14:33:04.463Z,42.41
2024-05-09T14:35:31.466Z,45.00
2024-05-09T14:37:58.855Z,44.46
2024-05-09T14:40:36.269Z,44.12
2024-05-09T14:43:08.024Z,45.22
2024-05-09T14:45:35.174Z,45.74
2024-05-09T14:48:03.060Z,45.88
2024-05-09T14:50:35.963Z,46.92
2024-05-09T14:53:07.026Z,47.93
2024-05-09T14:55:39.811Z,48.31
2024-05-09T14:58:08.526Z,49.40
2024-05-09T15:00:41.259Z,47.35
2024-05-09T15:03:11.374Z,47.11
2024-05-09T15:05:38.291Z,47.48
2024-05-09T15:08:08.757Z,44.93
2024-05-09T15:10:36.923Z,44.80
2024-05-09T15:13:07.030Z,43.49
2024-05-09T15:15:35.407Z,43.86
2024-05-09T15:18:04.148Z,45.46
2024-05-09T15:20:35.292Z,44.48
2024-05-09T15:23:06.874Z,43.81
2024-05-09T15:25:35.340Z,45.54
2024-05-09T15:28:02.568Z,46.30
2024-05-09T15:30:36.154Z,46.58
2024-05-09T15:33:04.077Z,46.91
2024-05-09T15:35:31.267Z,46.70
2024-05-09T15:37:58.198Z,43.79
2024-05-09T15:40:34.823Z,45.14
2024-05-09T15:43:07.130Z,44.98
2024-05-09T15:45:34.692Z,45.02
2024-05-09T15:48:02.578Z,45.14
2024-05-09T15:50:37.009Z,45.01
2024-05-09T15:53:08.116Z,45.16
2024-05-09T15:55:35.850Z,47.12
2024-05-09T15:58:04.153Z,46.60
2024-05-09T16:00:38.869Z,47.16
2024-05-09T16:03:13.876Z,47.63
2024-05-09T16:05:44.517Z,46.79
2024-05-09T16:08:12.703Z,46.73
2024-05-09T16:10:44.236Z,47.77
2024-05-09T16:13:12.172Z,46.45
2024-05-09T16:15:39.178Z,47.26
2024-05-09T16:18:06.711Z,48.09
2024-05-09T16:20:38.745Z,47.97
2024-05-09T16:23:08.937Z,49.21
2024-05-09T16:25:36.362Z,48.23
2024-05-09T16:28:07.435Z,48.26
2024-05-09T16:30:37.198Z,48.22
2024-05-09T16:33:05.394Z,48.97
2024-05-09T16:35:32.736Z,49.13
2024-05-09T16:38:01.865Z,49.18
2024-05-09T16:40:36.380Z,49.22
2024-05-09T16:43:07.311Z,47.94
2024-05-09T16:45:34.597Z,48.41
2024-05-09T16:48:01.918Z,48.85
2024-05-09T16:50:33.449Z,48.54
2024-05-09T16:53:02.667Z,47.87
2024-05-09T16:55:29.548Z,48.86
2024-05-09T16:57:57.471Z,50.53
2024-05-09T17:00:35.454Z,49.06
2024-05-09T17:03:09.734Z,49.48
2024-05-09T17:05:37.217Z,49.04
2024-05-09T17:08:04.938Z,47.51
2024-05-09T17:10:34.106Z,48.59
2024-05-09T17:13:03.611Z,49.72
2024-05-09T17:15:32.215Z,49.42
2024-05-09T17:17:59.320Z,49.68
2024-05-09T17:20:32.562Z,49.68
2024-05-09T17:23:03.054Z,50.59
2024-05-09T17:25:30.100Z,50.48
2024-05-09T17:27:57.273Z,50.72
2024-05-09T17:30:29.371Z,51.10
2024-05-09T17:33:03.501Z,52.09
2024-05-09T17:35:31.194Z,52.59
2024-05-09T17:37:58.526Z,51.60
2024-05-09T17:40:31.481Z,52.20
2024-05-09T17:43:02.814Z,53.61
2024-05-09T17:45:29.792Z,53.88
2024-05-09T17:47:56.902Z,54.32
2024-05-09T17:50:30.405Z,53.90
2024-05-09T17:53:01.834Z,55.11
2024-05-09T17:55:29.061Z,55.78
2024-05-09T17:57:56.036Z,56.46
2024-05-09T18:00:33.156Z,55.45
2024-05-09T18:03:05.727Z,56.23
2024-05-09T18:05:32.939Z,56.72
2024-05-09T18:08:00.052Z,56.55
2024-05-09T18:10:33.784Z,56.65
2024-05-09T18:13:05.796Z,57.21
2024-05-09T18:15:33.169Z,57.67
2024-05-09T18:18:00.763Z,57.81
2024-05-09T18:20:37.608Z,57.87
2024-05-09T18:23:10.159Z,57.93
2024-05-09T18:25:37.286Z,58.80
2024-05-09T18:28:04.657Z,59.05
2024-05-09T18:30:35.057Z,59.23
2024-05-09T18:33:05.530Z,59.51
2024-05-09T18:35:33.599Z,59.26
2024-05-09T18:38:00.680Z,59.69
2024-05-09T18:40:33.023Z,59.48
2024-05-09T18:43:03.732Z,59.86
2024-05-09T18:45:30.799Z,60.53
2024-05-09T18:47:58.210Z,60.75
2024-05-09T18:50:33.999Z,61.15
2024-05-09T18:53:08.266Z,61.06
2024-05-09T18:55:35.511Z,61.24
2024-05-09T18:58:03.354Z,61.35
2024-05-09T19:00:35.781Z,62.27
2024-05-09T19:03:09.701Z,63.37
2024-05-09T19:05:39.311Z,64.51
2024-05-09T19:08:07.891Z,64.95
2024-05-09T19:10:36.610Z,65.32
2024-05-09T19:13:09.345Z,66.03
2024-05-09T19:15:40.160Z,66.52
2024-05-09T19:18:07.824Z,67.98
2024-05-09T19:20:36.398Z,68.71
2024-05-09T19:23:04.976Z,69.10
2024-05-09T19:25:32.856Z,70.07
2024-05-09T19:28:00.095Z,70.87
2024-05-09T19:30:36.511Z,71.67
2024-05-09T19:33:07.733Z,71.76
2024-05-09T19:35:34.699Z,71.90
2024-05-09T19:38:01.898Z,71.23
2024-05-09T19:40:32.049Z,71.86
2024-05-09T19:43:05.548Z,71.51
2024-05-09T19:45:34.276Z,71.87
2024-05-09T19:48:02.292Z,72.09
2024-05-09T19:50:39.300Z,72.60
2024-05-09T19:53:10.194Z,73.08
2024-05-09T19:55:37.604Z,72.81
2024-05-09T19:58:07.092Z,72.45
2024-05-09T20:00:37.326Z,72.81
2024-05-09T20:03:06.577Z,73.18
2024-05-09T20:05:34.098Z,73.39
2024-05-09T20:08:01.100Z,72.71
2024-05-09T20:10:32.470Z,73.51
2024-05-09T20:13:01.583Z,74.05
2024-05-09T20:15:28.481Z,73.72
2024-05-09T20:17:55.640Z,74.12
2024-05-09T20:20:32.519Z,74.97
2024-05-09T20:23:04.818Z,74.30
2024-05-09T20:25:31.699Z,74.30
2024-05-09T20:27:58.438Z,74.50
2024-05-09T20:30:31.476Z,74.63
2024-05-09T20:33:01.857Z,75.45
2024-05-09T20:35:31.949Z,76.43
2024-05-09T20:37:59.389Z,76.45
2024-05-09T20:40:32.304Z,76.86
2024-05-09T20:43:02.983Z,77.40
2024-05-09T20:45:29.757Z,77.15
2024-05-09T20:47:57.575Z,77.34
2024-05-09T20:50:35.407Z,77.49
2024-05-09T20:53:12.148Z,77.61
2024-05-09T20:55:40.058Z,77.62
2024-05-09T20:58:06.890Z,77.99
2024-05-09T21:00:39.985Z,78.91
2024-05-09T21:03:10.891Z,78.24
2024-05-09T21:05:38.409Z,78.14
2024-05-09T21:08:05.813Z,77.98
2024-05-09T21:10:34.039Z,77.80
2024-05-09T21:13:03.001Z,77.34
2024-05-09T21:15:30.675Z,77.79
2024-05-09T21:17:57.618Z,78.05
2024-05-09T21:20:30.941Z,78.02
2024-05-09T21:22:59.439Z,77.72
2024-05-09T21:25:26.524Z,77.30
2024-05-09T21:27:53.453Z,77.46
2024-05-09T21:30:32.320Z,77.76
2024-05-09T21:33:12.550Z,77.59
2024-05-09T21:35:41.719Z,77.91
2024-05-09T21:38:08.775Z,78.55
2024-05-09T21:40:39.373Z,78.55
2024-05-09T21:43:07.613Z,79.19
2024-05-09T21:45:35.358Z,80.23
2024-05-09T21:48:06.565Z,80.10
2024-05-09T21:50:39.775Z,80.49
2024-05-09T21:53:08.907Z,80.93
2024-05-09T21:55:35.936Z,81.06
2024-05-09T21:58:03.424Z,81.21
2024-05-09T22:00:36.301Z,80.59
2024-05-09T22:03:10.603Z,80.93
2024-05-09T22:05:42.065Z,81.20
2024-05-09T22:08:09.531Z,81.56
2024-05-09T22:10:37.158Z,81.29
2024-05-09T22:13:08.558Z,81.63
2024-05-09T22:15:37.824Z,81.24
2024-05-09T22:18:08.619Z,81.74
2024-05-09T22:20:52.858Z,81.74
2024-05-09T22:23:34.529Z,81.58
2024-05-09T22:26:01.286Z,81.52
2024-05-09T22:28:28.061Z,82.19
2024-05-09T22:30:56.066Z,82.22
2024-05-09T22:33:31.517Z,82.49
2024-05-09T22:36:10.035Z,81.75
2024-05-09T22:38:48.472Z,82.36
2024-05-09T22:41:24.181Z,83.02
2024-05-09T22:43:56.627Z,82.76
2024-05-09T22:46:23.450Z,82.85
2024-05-09T22:48:50.295Z,83.09
2024-05-09T22:51:17.143Z,83.15
2024-05-09T22:53:43.853Z,83.79
2024-05-09T22:56:14.043Z,84.49
2024-05-09T22:58:40.766Z,84.05
2024-05-09T23:01:14.827Z,84.12
2024-05-09T23:03:41.797Z,84.04
2024-05-09T23:06:08.735Z,83.39
2024-05-09T23:08:35.569Z,83.31
2024-05-09T23:11:03.995Z,83.71
2024-05-09T23:13:30.805Z,83.60
2024-05-09T23:15:57.849Z,83.96
2024-05-09T23:18:24.611Z,83.58
2024-05-09T23:20:51.929Z,83.33
2024-05-09T23:23:18.826Z,83.49
2024-05-09T23:25:45.640Z,83.91
2024-05-09T23:28:12.686Z,83.71
2024-05-09T23:30:41.128Z,84.40
2024-05-09T23:33:13.315Z,84.43
2024-05-09T23:35:42.212Z,83.99
2024-05-09T23:38:09.140Z,84.74
2024-05-09T23:40:39.626Z,84.69
2024-05-09T23:43:10.403Z,84.32
2024-05-09T23:45:38.591Z,84.84
2024-05-09T23:48:06.564Z,85.18
2024-05-09T23:50:36.807Z,85.04
2024-05-09T23:53:07.988Z,85.45
2024-05-09T23:55:36.106Z,85.25
2024-05-09T23:58:02.959Z,85.32
